My Meet Scores
Rebecca Roberts, Kinetic Gymnastics - MyMeetScores.com
Top100 | Top Teams | Upcoming Meets | Completed Meets | Latest | Add Scores | Help| Support | Bookmark and Share

Rebecca Roberts, Kinetic Gymnastics
Personal Bests
LevelVault BarsBeamFloorAA
49.4009.375 9.2509.30037.325
XG9.3009.300 9.0509.20036.400
XP9.4509.450 9.3509.70036.800
Scores on America's Top 100as of 08.22.2019
Year Level Vault Bars Beam Floor AA
2016 XP9.700
Meet Scores
Date Meet Team Session Level Division Vault Bars Beam Floor AA
2019-05-03 Region 3 Xcel Championships Kinetic Gymnastics 8B XP A 9.275 2T 8.900 11T 9.350 1T 9.275 12T 36.800 8
2019-04-12 Colorado Xcel Platinum and Diamond State Meet Kinetic Gymnastics 4 XP Senior A 9.125 4 8.700 6 8.975 5 8.900 7T 35.700 5
2019-03-23 20 Mile Jubilee Kinetic Gymnastics 3 XP SR 9.450 1 8.800 3T 9.000 6T 9.250 7T 36.500 2
2019-02-23 2019 Colorado Sky Invitational Kinetic Gymnastics 8A XP Sr C 9.000 3 8.825 6 8.450 5 9.175 5 35.450 2
2019-02-15 Cactus Cooler Invitational 2019 Kinetic Gymnastics 8A XP Sr B 8.850 8 8.175 8 8.525 5 9.150 5 34.700 7
2019-01-25 Great Destinations - Colorado 2019 Kinetic Gymnastics 10 XP Senior B 8.825 4 8.750 3T 7.600 8 9.100 6 34.275 6
2019-01-04 Sweetheart Invitational Kinetic Gymnastics 2 XP Middle 9.200 3T 8.200 4 8.525 5 8.550 7 34.475 5
2018-04-27 2018 Colorado XP, XD State Championships Kinetic Gymnastics 3 XP Platinum 3 C 8.800 15 8.400 13 9.125 6 9.100 11 35.425 11
2018-04-07 Up In The Air Kinetic Gymnastics 6 XP Middle 9.200 30* 9.000 18T 8.300 51T 9.000 32T 35.500 32T
2018-03-03 Cheryl Baits Memorial Classic Kinetic Gymnastics 5 XP Junior 9.400 3 7.600 22 8.600 15 9.300 8 34.900 16
2018-02-24 Treasure Island Invite Kinetic Gymnastics 1 XP All 8.650 1 9.075 3 7.750 12 9.000 4 34.475 2
2017-01-28 Mile High Open Kinetic Gymnastics 5 XP Junior B 8.900 2 8.650 4T 8.525 6 9.225 2 35.300 2
2016-05-20 2016 Region 3 XG, XP Championships Kinetic Gymnastics 5 XP Child C 9.050 13T 8.925 10 8.725 6 9.200 7 35.900 6
2016-05-06 2016 Colorado XP, XD Championships Kinetic Gymnastics ALL XP Ch C 9.050 97T 9.050 43T 8.300 91T 8.950 115T 35.350 72T
2016-04-15 Airborne April Showers Xcel Meet Kinetic Gymnastics 2 XP Child 9.100 3 8.400 8T 8.400 5 9.700 2 35.600 5
2016-03-04 2016 CSI Colorado Sky Invitational Kinetic Gymnastics 6B XP Jr A 9.200 7T 8.100 7T 8.500 11T 9.100 1T 34.900 7T
2016-02-20 Rocky Invitational Kinetic Gymnastics 4 XP Junior A 9.000 1 7.900 8 8.850 1 9.100 5T 34.850 3
2015-05-29 2015 TIGAR Summer Safari Kinetic Gymnastics 6 XP Child 9.150 3T 9.450 1 9.350 2T 8.800 7 36.750 2
2015-04-10 Hippity Hoppity V 2015 Kinetic Gymnastics 8 XP Child 8.800 4 9.100 1 9.300 2 9.300 1 36.500 1
2014-06-27 2014 Colorado XCEL XG/XP/XD State Kinetic Gymnastics 1 XG Ch C 8.700 9T 9.300 9T 8.575 14 9.175 8T 35.750 10
2014-06-07 Stars Of Xcel Summer Invitational Kinetic Gymnastics 2 XG Child 9.000 5 9.050 5 9.050 5 9.200 6 36.300 4
2014-05-30 2014 AGA 80s Throwback Kinetic Gymnastics 7 XG CH 9.300 2 9.150 5 8.850 6T 9.100 7T 36.400 3
2014-05-02 2014 May Madness Invitational Kinetic Gymnastics 2 XG Jr A 9.300 4T 9.200 6T 8.700 7T 8.650 10T 35.850 6
2013-06-28 2013 Colorado Xcel Compulsory State Kinetic Gymnastics 5 4 Ch E 9.400 2T 9.375 5 9.250 3 9.300 5T 37.325 3
2012-05-04 2012 80's Throwback Invitational Kinetic Gymnastics 3 4 Ch. 9.100 7T 8.200 15 8.000 17 9.000 12T 34.300 13
Click here to view our personalized
"Celebrate Your Season"
2018-19 Collection

www.lazysuits.com